Time;durP1;ratioP1;P1;durP2;ratioP2;P2;SDS_P1;SDS_P2;PMS_P1;PMS_P2;Temp;Humidity;BMP_temperature;BMP_pressure;BME280_temperature;BME280_humidity;BME280_pressure;Samples;Min_cycle;Max_cycle;Signal;HPM_P1;HPM_P2
2023/03/30 00:07:12;;;;;;;2.13;1.10;;;;;;;11.31;46.85;99644.06;19807728;30;20213;-81
2023/03/30 00:17:14;;;;;;;3.72;0.63;;;;;;;11.55;46.12;99632.59;19807206;29;20218;-81
2023/03/30 00:27:17;;;;;;;4.28;1.13;;;;;;;11.20;46.87;99612.72;19807716;30;20262;-82
2023/03/30 00:37:19;;;;;;;1.55;0.60;;;;;;;11.09;46.37;99613.63;19807080;29;20251;-82
2023/03/30 00:47:21;;;;;;;3.33;0.80;;;;;;;11.57;44.89;99596.31;19821275;29;20233;-82
2023/03/30 00:57:25;;;;;;;4.75;1.10;;;;;;;11.88;44.03;99583.31;19806750;29;20243;-82
2023/03/30 01:07:28;;;;;;;3.13;0.93;;;;;;;11.62;44.35;99570.59;19819615;30;20209;-82
2023/03/30 01:17:38;;;;;;;3.27;1.10;;;;;;;11.89;42.88;99554.66;19901463;29;20224;-82
2023/03/30 01:28:03;;;;;;;3.33;0.65;;;;;;;11.33;43.99;99537.97;19953027;29;20305;-82
2023/03/30 01:38:36;;;;;;;2.85;0.90;;;;;;;11.50;43.81;99536.81;19895733;29;20456;-83
2023/03/30 01:49:09;;;;;;;6.47;0.90;;;;;;;11.67;43.08;99532.72;19947774;29;20232;-83
2023/03/30 01:59:19;;;;;;;2.22;0.90;;;;;;;12.37;41.06;99530.63;19889702;29;20197;-83
2023/03/30 02:09:22;;;;;;;2.05;1.17;;;;;;;11.63;42.76;99529.00;19887086;29;20220;-81
2023/03/30 02:19:27;;;;;;;2.43;0.97;;;;;;;11.68;42.67;99528.72;19888826;29;20630;-82
2023/03/30 02:29:30;;;;;;;4.28;1.17;;;;;;;12.13;41.14;99519.59;19887577;29;20554;-82
2023/03/30 02:39:42;;;;;;;6.30;1.30;;;;;;;12.01;41.07;99514.91;19887792;29;20201;-82
2023/03/30 02:49:59;;;;;;;4.75;1.00;;;;;;;12.38;40.66;99486.97;19900490;29;20231;-82
2023/03/30 03:00:11;;;;;;;4.53;0.90;;;;;;;12.12;41.44;99469.03;19885701;29;20300;-80
2023/03/30 03:10:14;;;;;;;2.90;0.90;;;;;;;12.86;39.82;99447.78;19923363;29;20693;-83
2023/03/30 03:20:17;;;;;;;4.63;1.00;;;;;;;12.10;41.50;99440.31;19880997;29;20539;-84
2023/03/30 03:30:19;;;;;;;5.07;1.10;;;;;;;11.77;42.02;99440.88;19821478;29;20278;-83
2023/03/30 03:40:33;;;;;;;4.43;0.80;;;;;;;12.47;40.93;99449.09;19827312;29;20781;-84
2023/03/30 03:50:35;;;;;;;16.20;1.00;;;;;;;11.98;41.19;99463.91;19821761;29;20639;-84
2023/03/30 04:00:38;;;;;;;4.78;1.00;;;;;;;13.02;39.72;99459.81;19821553;29;20595;-85
2023/03/30 04:10:41;;;;;;;7.85;1.23;;;;;;;12.42;40.73;99438.13;19841350;29;20217;-87
2023/03/30 04:21:11;;;;;;;3.65;0.90;;;;;;;12.92;39.62;99442.63;19880548;29;20227;-87
2023/03/30 04:31:17;;;;;;;3.65;0.90;;;;;;;12.73;40.42;99415.19;19957779;29;20227;-87
2023/03/30 04:41:40;;;;;;;2.65;1.17;;;;;;;12.80;40.44;99408.84;19945107;29;20609;-86
2023/03/30 04:51:57;;;;;;;2.47;0.90;;;;;;;13.19;39.64;99403.81;19965026;29;20606;-87
2023/03/30 05:02:15;;;;;;;5.80;1.08;;;;;;;13.42;39.38;99402.50;19964958;29;20208;-86
2023/03/30 05:12:37;;;;;;;3.22;0.98;;;;;;;13.94;38.56;99408.44;19946820;29;20256;-87
2023/03/30 05:23:05;;;;;;;5.93;1.10;;;;;;;13.13;40.47;99417.47;19938335;29;20228;-83
2023/03/30 05:33:26;;;;;;;8.52;1.08;;;;;;;12.24;43.01;99406.66;19963673;29;20235;-86
2023/03/30 05:43:51;;;;;;;4.13;1.38;;;;;;;12.07;43.80;99413.56;20007309;29;20208;-86
2023/03/30 05:54:10;;;;;;;6.13;1.43;;;;;;;12.47;43.24;99426.47;19938592;29;20280;-86
2023/03/30 06:04:34;;;;;;;1.95;1.02;;;;;;;12.37;43.80;99431.56;19958630;29;20215;-85
2023/03/30 06:14:37;;;;;;;3.53;1.17;;;;;;;12.22;44.13;99449.47;19933687;29;20223;-87
2023/03/30 06:24:58;;;;;;;2.80;1.33;;;;;;;11.97;45.00;99436.81;19965012;29;20232;-85
2023/03/30 06:35:02;;;;;;;1.55;0.98;;;;;;;12.13;45.05;99448.03;19940234;29;20239;-86
2023/03/30 06:45:06;;;;;;;2.40;0.60;;;;;;;12.27;44.27;99435.03;19956620;29;20268;-85
2023/03/30 06:55:09;;;;;;;2.17;0.73;;;;;;;12.22;44.09;99440.97;19941149;29;20284;-85
2023/03/30 07:05:14;;;;;;;3.30;0.63;;;;;;;12.37;44.26;99437.22;19942963;29;20670;-86
2023/03/30 07:15:27;;;;;;;4.00;1.05;;;;;;;13.18;42.54;99441.84;19964337;29;20272;-86
2023/03/30 07:25:31;;;;;;;5.15;1.33;;;;;;;12.98;43.74;99439.06;19957889;29;20227;-88
2023/03/30 07:35:44;;;;;;;5.13;1.10;;;;;;;12.75;43.04;99453.25;19989454;29;20268;-87
2023/03/30 07:45:48;;;;;;;2.90;1.08;;;;;;;11.57;45.51;99477.59;19980635;29;20548;-86
2023/03/30 07:56:04;;;;;;;4.95;1.30;;;;;;;12.71;45.67;99465.72;19964432;29;20231;-84
2023/03/30 08:06:16;;;;;;;4.40;0.80;;;;;;;12.03;47.70;99477.78;19940646;29;20275;-84
2023/03/30 08:16:22;;;;;;;4.53;0.80;;;;;;;12.33;46.12;99498.59;19970922;29;20284;-85
2023/03/30 08:26:25;;;;;;;5.90;0.98;;;;;;;12.27;49.99;99508.59;19914208;29;20269;-86
2023/03/30 08:36:27;;;;;;;2.20;0.80;;;;;;;12.79;47.83;99512.00;19894640;29;20297;-86
2023/03/30 08:46:29;;;;;;;7.47;1.35;;;;;;;11.23;49.41;99523.59;19925049;29;20587;-86
2023/03/30 08:56:52;;;;;;;5.90;1.27;;;;;;;12.36;47.63;99526.16;19894213;29;20277;-86
2023/03/30 09:07:25;;;;;;;4.30;1.30;;;;;;;12.52;46.33;99530.91;19892541;29;20362;-86
2023/03/30 09:17:40;;;;;;;6.22;1.05;;;;;;;12.93;45.40;99524.41;19903365;29;20228;-87
2023/03/30 09:28:21;;;;;;;5.22;0.85;;;;;;;11.91;46.51;99528.81;19890942;29;20269;-87
2023/03/30 09:38:23;;;;;;;4.45;0.98;;;;;;;12.77;43.40;99529.34;19921903;29;20227;-87
2023/03/30 09:48:25;;;;;;;6.20;1.00;;;;;;;12.54;43.70;99542.69;19900500;29;20221;-84
2023/03/30 09:58:30;;;;;;;3.30;0.80;;;;;;;12.51;43.49;99540.59;19875591;29;20193;-86
2023/03/30 10:08:48;;;;;;;2.92;0.95;;;;;;;12.37;43.54;99567.44;19890924;29;20275;-84
2023/03/30 10:19:13;;;;;;;4.10;1.02;;;;;;;11.95;44.10;99584.28;19913507;29;20633;-88
2023/03/30 10:29:17;;;;;;;2.40;0.57;;;;;;;11.08;47.05;99614.81;19966953;29;20503;-84
2023/03/30 10:39:32;;;;;;;7.93;1.30;;;;;;;9.91;60.00;99634.78;19971945;29;20552;-85
2023/03/30 10:50:09;;;;;;;7.73;1.17;;;;;;;10.06;61.98;99628.44;19959327;29;20227;-85
2023/03/30 11:00:31;;;;;;;7.23;1.83;;;;;;;11.02;60.34;99613.44;19960573;29;20199;-85
2023/03/30 11:10:39;;;;;;;6.35;1.98;;;;;;;10.63;59.19;99616.00;19974361;29;20526;-85
2023/03/30 11:20:51;;;;;;;6.22;1.13;;;;;;;12.83;53.28;99620.50;19954726;29;20296;-85
2023/03/30 11:30:55;;;;;;;8.52;1.88;;;;;;;12.46;52.40;99606.81;19986379;29;20578;-86
2023/03/30 11:41:06;;;;;;;8.57;2.05;;;;;;;11.10;55.23;99621.75;19979654;29;20682;-87
2023/03/30 11:51:08;;;;;;;7.80;2.22;;;;;;;11.93;52.29;99603.63;19984967;29;20219;-88
2023/03/30 12:01:30;;;;;;;7.95;1.70;;;;;;;11.65;51.74;99614.25;20004301;29;20215;-87
2023/03/30 12:11:55;;;;;;;7.70;1.85;;;;;;;12.66;48.75;99616.94;19941648;29;20283;-88
2023/03/30 12:22:20;;;;;;;5.68;1.60;;;;;;;12.14;48.92;99603.28;19987886;29;20236;-87
2023/03/30 12:32:29;;;;;;;6.05;2.08;;;;;;;11.40;58.01;99626.97;19952852;29;20219;-85
2023/03/30 12:42:33;;;;;;;7.88;1.90;;;;;;;10.93;57.31;99607.97;19946682;29;20209;-86
2023/03/30 12:53:02;;;;;;;7.20;1.48;;;;;;;11.20;57.67;99620.38;19952474;29;20241;-86
2023/03/30 13:03:36;;;;;;;5.60;1.50;;;;;;;10.92;62.01;99635.38;19983215;29;20268;-86
2023/03/30 13:13:49;;;;;;;2.65;0.63;;;;;;;10.52;57.60;99645.94;19963601;29;20303;-87
2023/03/30 13:24:22;;;;;;;0.85;0.45;;;;;;;10.69;56.88;99673.84;19983104;29;20235;-87
2023/03/30 13:34:36;;;;;;;4.83;0.90;;;;;;;9.99;62.32;99666.84;19979399;29;20293;-85
2023/03/30 13:44:50;;;;;;;3.40;0.80;;;;;;;10.24;61.43;99626.94;19979056;29;20196;-87
2023/03/30 13:54:52;;;;;;;3.73;0.50;;;;;;;11.31;59.19;99624.28;19958070;29;20243;-89
2023/03/30 14:05:20;;;;;;;3.73;0.80;;;;;;;11.09;61.53;99622.09;19968200;29;20204;-88
2023/03/30 14:15:26;;;;;;;4.23;1.43;;;;;;;11.80;57.74;99621.06;19959993;29;20491;-87
2023/03/30 14:25:34;;;;;;;6.05;4.57;;;;;;;12.49;52.56;99619.41;19964005;29;20240;-83
2023/03/30 14:35:41;;;;;;;4.05;1.17;;;;;;;12.42;52.69;99620.09;19949038;29;20220;-80
2023/03/30 14:45:43;;;;;;;8.18;1.15;;;;;;;12.70;51.69;99614.16;19943752;29;20602;-81
2023/03/30 14:55:46;;;;;;;3.45;1.13;;;;;;;11.98;51.52;99596.84;19970316;29;20224;-81
2023/03/30 15:05:49;;;;;;;6.60;1.05;;;;;;;12.26;50.00;99593.88;19927962;29;20268;-78
2023/03/30 15:15:53;;;;;;;6.05;1.02;;;;;;;10.69;57.09;99644.81;19973328;29;20232;-78
2023/03/30 15:26:02;;;;;;;8.25;1.65;;;;;;;11.69;57.13;99609.53;19968760;29;20584;-79
2023/03/30 15:36:40;;;;;;;7.70;2.13;;;;;;;11.41;58.12;99589.84;19940200;29;20626;-80
2023/03/30 15:46:43;;;;;;;6.68;1.58;;;;;;;11.69;56.67;99603.88;19952614;29;20195;-81
2023/03/30 15:56:51;;;;;;;9.83;1.87;;;;;;;11.35;57.08;99622.38;19935745;29;20698;-81
2023/03/30 16:07:02;;;;;;;8.50;1.67;;;;;;;11.32;57.37;99657.03;19950632;29;20208;-79
2023/03/30 16:17:04;;;;;;;6.72;1.45;;;;;;;10.91;59.16;99639.38;19967095;29;20283;-80
2023/03/30 16:27:09;;;;;;;7.30;1.73;;;;;;;11.02;58.14;99624.72;19963025;29;20259;-79
2023/03/30 16:37:11;;;;;;;5.88;1.40;;;;;;;11.41;57.58;99626.59;19964565;29;20281;-80
2023/03/30 16:47:14;;;;;;;8.85;1.85;;;;;;;11.36;56.46;99638.19;19982286;29;20199;-77
2023/03/30 16:57:17;;;;;;;4.57;1.50;;;;;;;11.79;56.70;99633.56;19962161;29;20589;-77
2023/03/30 17:07:19;;;;;;;5.43;1.42;;;;;;;11.28;57.53;99644.78;19955892;29;20498;-79
2023/03/30 17:17:22;;;;;;;6.18;1.60;;;;;;;11.30;56.84;99631.13;19961346;29;20646;-81
2023/03/30 17:27:24;;;;;;;10.20;2.78;;;;;;;11.66;55.54;99636.50;19945541;29;20233;-80
2023/03/30 17:37:26;;;;;;;8.70;1.70;;;;;;;10.60;59.48;99664.72;19961086;29;20243;-78
2023/03/30 17:47:29;;;;;;;4.67;1.33;;;;;;;11.17;58.70;99677.59;19961118;29;20200;-76
2023/03/30 17:57:31;;;;;;;6.68;1.23;;;;;;;10.79;61.92;99684.63;19961442;29;20247;-77
2023/03/30 18:07:34;;;;;;;4.80;1.40;;;;;;;10.64;61.43;99682.56;19925363;29;20196;-78
2023/03/30 18:17:36;;;;;;;4.07;0.80;;;;;;;10.38;59.91;99677.34;19962498;29;20595;-78
2023/03/30 18:27:41;;;;;;;3.47;0.73;;;;;;;10.32;59.83;99680.78;19961916;29;20200;-79
2023/03/30 18:37:44;;;;;;;3.03;1.00;;;;;;;10.23;60.53;99681.72;19940333;29;20691;-78
2023/03/30 18:47:47;;;;;;;5.43;1.67;;;;;;;10.45;59.69;99682.38;19942546;29;20204;-79
2023/03/30 18:57:49;;;;;;;6.00;1.10;;;;;;;10.80;58.91;99686.28;19943389;29;20249;-78
2023/03/30 19:07:55;;;;;;;4.88;1.48;;;;;;;10.06;60.34;99684.81;19934349;29;20723;-80
2023/03/30 19:17:57;;;;;;;4.73;1.00;;;;;;;10.38;57.81;99676.50;19950184;29;20235;-80
2023/03/30 19:28:00;;;;;;;6.20;1.03;;;;;;;10.40;57.38;99676.97;19957423;29;20208;-81
2023/03/30 19:38:05;;;;;;;6.27;1.67;;;;;;;10.95;54.98;99671.38;19977333;29;20232;-80
2023/03/30 19:48:16;;;;;;;4.88;1.17;;;;;;;10.75;55.98;99658.28;19981669;29;20195;-79
2023/03/30 19:58:18;;;;;;;6.57;1.25;;;;;;;10.69;56.21;99656.09;19969566;29;20227;-79
2023/03/30 20:08:20;;;;;;;6.70;1.40;;;;;;;10.13;56.99;99650.38;19958637;29;20199;-80
2023/03/30 20:18:29;;;;;;;5.87;1.13;;;;;;;10.83;54.33;99634.72;19942602;29;20228;-79
2023/03/30 20:28:31;;;;;;;5.72;1.67;;;;;;;10.19;56.57;99627.22;19960290;29;20208;-79
2023/03/30 20:38:34;;;;;;;5.00;1.42;;;;;;;10.68;55.05;99618.56;19953159;29;20288;-79
2023/03/30 20:48:37;;;;;;;3.75;1.05;;;;;;;10.50;55.08;99625.72;19937985;29;20204;-79
2023/03/30 20:58:40;;;;;;;4.57;1.13;;;;;;;10.04;56.46;99622.31;19937550;29;20232;-78
2023/03/30 21:08:42;;;;;;;5.30;1.10;;;;;;;10.39;55.17;99607.63;19949395;29;20261;-78
2023/03/30 21:18:44;;;;;;;3.57;0.80;;;;;;;9.85;56.07;99606.00;19958636;29;20236;-79
2023/03/30 21:28:47;;;;;;;4.45;0.70;;;;;;;9.54;56.13;99609.44;19949785;29;20200;-80
2023/03/30 21:38:49;;;;;;;1.67;0.68;;;;;;;9.81;55.42;99588.19;19941986;29;20216;-79
2023/03/30 21:48:52;;;;;;;3.08;0.55;;;;;;;10.02;54.48;99587.19;19944065;29;20200;-79
2023/03/30 21:58:55;;;;;;;2.60;0.80;;;;;;;9.81;55.14;99576.09;19946799;29;20262;-79
2023/03/30 22:08:57;;;;;;;3.90;0.82;;;;;;;9.52;56.57;99568.69;19933820;29;20200;-79
2023/03/30 22:19:00;;;;;;;4.30;0.70;;;;;;;9.53;55.80;99551.44;19954280;29;20267;-79
2023/03/30 22:29:03;;;;;;;3.37;0.67;;;;;;;9.74;55.79;99547.66;19945535;29;20264;-79
2023/03/30 22:39:05;;;;;;;3.03;0.50;;;;;;;9.72;56.42;99538.75;19929193;29;20228;-78
2023/03/30 22:49:08;;;;;;;3.75;0.82;;;;;;;9.13;58.25;99533.63;19960375;29;20522;-79
2023/03/30 22:59:10;;;;;;;3.53;0.70;;;;;;;9.06;58.18;99517.31;19944611;29;20282;-81
2023/03/30 23:09:13;;;;;;;5.43;0.80;;;;;;;9.59;57.04;99501.31;19944704;29;20200;-80
2023/03/30 23:19:15;;;;;;;3.93;1.10;;;;;;;9.79;56.88;99494.69;19943648;29;20542;-81
2023/03/30 23:29:18;;;;;;;3.93;1.00;;;;;;;10.09;55.83;99478.22;19928520;29;20237;-80
2023/03/30 23:39:24;;;;;;;3.35;0.88;;;;;;;10.02;55.77;99461.13;19953791;29;20216;-80
2023/03/30 23:49:27;;;;;;;4.10;0.70;;;;;;;9.40;57.31;99454.03;19960600;29;20920;-79
2023/03/30 23:59:29;;;;;;;2.13;0.60;;;;;;;9.68;56.54;99442.84;19933810;29;20223;-79
